Danvers, Illinois
Current Conditions -  °F | °C
As of 11:56 AM on Friday 21 Nov 2014 (Local Time) from KBMI Reporting Station
Clear Clear  
Wind Chill: 22°   Ceiling: Unl
Heat Index: 32°   Visibility: 10mi
Dew Point:   Wind: 14mph
Humidity: 35%   Direction: 150°SSE
Pressure: 30.41"   Gusts: NA
Location:  40.53°N, 89.18°W
Report Text: KBMI 211756Z 15012KT 10SM CLR 00/M14 A3041 RMK AO2 58012 T00001138 10000 21133 SLP320
Loading
Personal Weather Stations






























Interactive Weather Map New forecast layout! Learn more

10-Day Weather Forecast

Advertisements
Track Severe Weather on mobile